Time;durP1;ratioP1;P1;durP2;ratioP2;P2;SDS_P1;SDS_P2;PMS_P1;PMS_P2;Temp;Humidity;BMP_temperature;BMP_pressure;BME280_temperature;BME280_humidity;BME280_pressure;Samples;Min_cycle;Max_cycle;Signal;HPM_P1;HPM_P2
2021/04/01 00:00:23;;;;;;;47.13;25.67;;;14.20;99.90;;;;;;5020494;28;20198;-79
2021/04/01 00:02:52;;;;;;;46.93;23.77;;;14.20;99.90;;;;;;5021204;28;20214;-76
2021/04/01 00:05:19;;;;;;;52.50;26.17;;;14.20;99.90;;;;;;5019798;28;20654;-76
2021/04/01 00:07:45;;;;;;;51.70;27.73;;;14.30;99.90;;;;;;5031596;28;20232;-78
2021/04/01 00:10:14;;;;;;;49.20;25.43;;;14.20;99.90;;;;;;5040732;28;20500;-77
2021/04/01 00:12:41;;;;;;;54.17;27.53;;;14.20;99.90;;;;;;5032588;28;20203;-77
2021/04/01 00:15:10;;;;;;;55.93;27.40;;;14.30;99.90;;;;;;5020935;28;20210;-78
2021/04/01 00:17:37;;;;;;;47.73;24.90;;;14.30;99.90;;;;;;5020270;28;20199;-78
2021/04/01 00:20:07;;;;;;;55.63;28.30;;;14.30;99.90;;;;;;5019601;28;20230;-76
2021/04/01 00:22:34;;;;;;;52.07;26.67;;;14.30;99.90;;;;;;5020828;28;20587;-76
2021/04/01 00:25:00;;;;;;;51.57;28.00;;;14.30;99.90;;;;;;5021011;28;20210;-77
2021/04/01 00:27:26;;;;;;;62.03;31.93;;;14.30;99.90;;;;;;5023177;28;20234;-78
2021/04/01 00:29:53;;;;;;;70.87;36.60;;;14.20;99.90;;;;;;5024554;28;20203;-77
2021/04/01 00:32:19;;;;;;;73.53;37.33;;;14.10;99.90;;;;;;5023580;28;20206;-77
2021/04/01 00:34:45;;;;;;;74.53;38.67;;;14.00;99.90;;;;;;5023311;28;20293;-77
2021/04/01 00:37:12;;;;;;;77.20;39.63;;;14.00;99.90;;;;;;5024012;28;20522;-76
2021/04/01 00:39:39;;;;;;;70.73;36.57;;;13.90;99.90;;;;;;5024240;28;20229;-76
2021/04/01 00:42:05;;;;;;;74.90;39.07;;;13.80;99.90;;;;;;5023053;28;20207;-76
2021/04/01 00:44:33;;;;;;;71.53;35.53;;;13.80;99.90;;;;;;5024193;28;20253;-76
2021/04/01 00:46:59;;;;;;;71.53;36.93;;;13.70;99.90;;;;;;5024198;28;20197;-77
2021/04/01 00:49:26;;;;;;;69.33;36.87;;;13.60;99.90;;;;;;5012482;28;20782;-76
2021/04/01 00:51:52;;;;;;;70.57;36.90;;;13.50;99.90;;;;;;5004703;28;20203;-75
2021/04/01 00:54:19;;;;;;;70.73;36.23;;;13.50;99.90;;;;;;5003444;28;20318;-76
2021/04/01 00:56:45;;;;;;;62.07;33.10;;;13.40;99.90;;;;;;5012616;28;20245;-76
2021/04/01 00:59:12;;;;;;;61.33;31.77;;;13.30;99.90;;;;;;5023520;28;20230;-77
2021/04/01 01:01:44;;;;;;;65.77;32.80;;;13.30;99.90;;;;;;5022817;28;20206;-76
2021/04/01 01:04:11;;;;;;;68.10;36.17;;;13.30;99.90;;;;;;5023493;28;20565;-78
2021/04/01 01:06:37;;;;;;;66.67;33.83;;;13.20;99.90;;;;;;5016510;28;20219;-76
2021/04/01 01:09:05;;;;;;;69.17;35.37;;;13.20;99.90;;;;;;5043543;28;20198;-76
2021/04/01 01:11:33;;;;;;;69.57;34.87;;;13.10;99.90;;;;;;5043125;28;21062;-77
2021/04/01 01:14:00;;;;;;;68.47;35.70;;;13.20;99.90;;;;;;5011788;28;20215;-79
2021/04/01 01:16:27;;;;;;;63.20;34.10;;;13.10;99.90;;;;;;5003066;28;20215;-78
2021/04/01 01:18:53;;;;;;;60.77;32.17;;;13.10;99.90;;;;;;5004129;28;20216;-78
2021/04/01 01:21:20;;;;;;;68.30;33.90;;;13.10;99.90;;;;;;5003352;28;21018;-79
2021/04/01 01:23:47;;;;;;;58.00;31.97;;;13.00;99.90;;;;;;5021361;28;20902;-77
2021/04/01 01:26:14;;;;;;;53.03;29.10;;;13.00;99.90;;;;;;5023725;28;20209;-77
2021/04/01 01:28:40;;;;;;;59.50;31.50;;;13.00;99.90;;;;;;5023018;28;20222;-77
2021/04/01 01:31:07;;;;;;;51.03;27.33;;;13.00;99.90;;;;;;5022065;28;20210;-76
2021/04/01 01:33:40;;;;;;;50.77;27.13;;;12.90;99.90;;;;;;5022765;28;20268;-78
2021/04/01 01:36:07;;;;;;;51.83;26.40;;;12.90;99.90;;;;;;5002795;28;20211;-77
2021/04/01 01:38:34;;;;;;;55.77;29.07;;;12.90;99.90;;;;;;5002873;28;20220;-78
2021/04/01 01:41:01;;;;;;;49.03;25.97;;;12.90;99.90;;;;;;5003469;28;20207;-79
2021/04/01 01:43:29;;;;;;;47.70;24.73;;;12.80;99.90;;;;;;5016309;28;20207;-79
2021/04/01 01:45:55;;;;;;;48.80;24.47;;;12.80;99.90;;;;;;5022882;28;20252;-79
2021/04/01 01:48:22;;;;;;;46.67;23.40;;;12.80;99.90;;;;;;5022588;28;20199;-79
2021/04/01 01:50:48;;;;;;;46.83;22.10;;;12.80;99.90;;;;;;5022595;28;20207;-76
2021/04/01 01:53:14;;;;;;;44.97;21.90;;;12.80;99.90;;;;;;5023061;28;20203;-79
2021/04/01 01:55:42;;;;;;;47.80;22.73;;;12.80;99.90;;;;;;5023018;28;20209;-80
2021/04/01 01:58:09;;;;;;;46.33;22.33;;;12.80;99.90;;;;;;5021956;28;20206;-77
2021/04/01 02:00:40;;;;;;;42.07;20.57;;;12.70;99.90;;;;;;5012370;28;20832;-79
2021/04/01 02:03:07;;;;;;;44.80;21.47;;;12.70;99.90;;;;;;5002534;28;20712;-78
2021/04/01 02:05:35;;;;;;;42.93;21.10;;;12.60;99.90;;;;;;5000893;28;20281;-80
2021/04/01 02:08:02;;;;;;;35.90;18.37;;;12.60;99.90;;;;;;5034945;28;20222;-78
2021/04/01 02:10:31;;;;;;;37.03;18.13;;;12.50;99.90;;;;;;5040839;28;20798;-77
2021/04/01 02:12:58;;;;;;;38.77;19.57;;;12.50;99.90;;;;;;5031698;28;20215;-80
2021/04/01 02:15:27;;;;;;;40.63;22.40;;;12.40;99.90;;;;;;5023018;28;20260;-75
2021/04/01 02:18:07;;;;;;;46.90;24.53;;;12.40;99.90;;;;;;5020755;28;20223;-77
2021/04/01 02:20:39;;;;;;;48.70;24.17;;;12.30;99.90;;;;;;5002463;28;20286;-78
2021/04/01 02:23:07;;;;;;;63.00;30.83;;;12.30;99.90;;;;;;5003698;28;20207;-76
2021/04/01 02:25:33;;;;;;;69.90;34.23;;;12.20;99.90;;;;;;5003727;28;20252;-78
2021/04/01 02:28:00;;;;;;;71.40;35.50;;;12.20;99.90;;;;;;5023110;28;20219;-78
2021/04/01 02:30:26;;;;;;;66.23;33.80;;;12.10;99.90;;;;;;5022104;28;20198;-76
2021/04/01 02:32:52;;;;;;;66.90;33.60;;;12.00;99.90;;;;;;5022239;28;20207;-77
2021/04/01 02:35:20;;;;;;;64.43;32.07;;;12.00;99.90;;;;;;5021436;28;20206;-79
2021/04/01 02:37:46;;;;;;;72.40;36.30;;;12.00;99.90;;;;;;5020918;28;20591;-79
2021/04/01 02:40:13;;;;;;;71.13;36.20;;;12.10;99.90;;;;;;5021051;28;20292;-78
2021/04/01 02:42:40;;;;;;;76.70;36.47;;;12.10;99.90;;;;;;5021840;28;20209;-78
2021/04/01 02:45:07;;;;;;;74.03;38.90;;;12.00;99.90;;;;;;5004614;28;20215;-78
2021/04/01 02:47:34;;;;;;;70.43;36.57;;;11.90;99.90;;;;;;5002519;28;20207;-79
2021/04/01 02:50:00;;;;;;;78.20;39.40;;;11.90;99.90;;;;;;5021366;28;20202;-82
2021/04/01 02:52:27;;;;;;;78.80;39.07;;;11.90;99.90;;;;;;5020916;28;20747;-78
2021/04/01 02:54:53;;;;;;;81.77;43.30;;;11.80;99.90;;;;;;5020777;28;20211;-79
2021/04/01 02:57:20;;;;;;;87.43;45.77;;;11.80;99.90;;;;;;5021700;28;20202;-77
2021/04/01 02:59:47;;;;;;;84.40;44.27;;;11.80;99.90;;;;;;5021577;28;20273;-80
2021/04/01 03:02:14;;;;;;;79.07;42.53;;;11.70;99.90;;;;;;5020907;28;20210;-78
2021/04/01 03:04:40;;;;;;;81.17;43.97;;;11.70;99.90;;;;;;5021083;28;20292;-79
2021/04/01 03:07:07;;;;;;;86.73;45.67;;;11.60;99.90;;;;;;5027801;28;20194;-78
2021/04/01 03:09:34;;;;;;;84.13;44.90;;;11.60;99.90;;;;;;5040131;28;20202;-77
2021/04/01 03:12:01;;;;;;;90.27;46.77;;;11.50;99.90;;;;;;5020887;28;20293;-78
2021/04/01 03:14:27;;;;;;;89.57;46.80;;;11.40;99.90;;;;;;5020606;28;20273;-78
2021/04/01 03:16:54;;;;;;;79.17;43.77;;;11.40;99.90;;;;;;5022548;28;20203;-78
2021/04/01 03:19:20;;;;;;;82.23;47.70;;;11.30;99.90;;;;;;5020956;28;20229;-78
2021/04/01 03:21:46;;;;;;;87.47;48.03;;;11.20;99.90;;;;;;5021741;28;20325;-79
2021/04/01 03:24:13;;;;;;;90.77;48.30;;;11.20;99.90;;;;;;5021758;28;20210;-78
2021/04/01 03:26:41;;;;;;;79.43;45.53;;;11.20;99.90;;;;;;5020925;28;20214;-79
2021/04/01 03:29:08;;;;;;;83.53;47.50;;;11.10;99.90;;;;;;5020896;28;20199;-79
2021/04/01 03:31:34;;;;;;;83.83;48.37;;;11.10;99.90;;;;;;5004142;28;20214;-78
2021/04/01 03:34:01;;;;;;;88.90;49.43;;;11.10;99.90;;;;;;5002396;28;20203;-78
2021/04/01 03:36:28;;;;;;;91.47;52.03;;;11.10;99.90;;;;;;5004834;28;20308;-79
2021/04/01 03:38:55;;;;;;;87.43;49.87;;;11.10;99.90;;;;;;5021260;28;20661;-79
2021/04/01 03:41:21;;;;;;;90.60;50.13;;;11.00;99.90;;;;;;5021214;28;20194;-79
2021/04/01 03:43:49;;;;;;;89.10;51.03;;;10.90;99.90;;;;;;5019906;28;20210;-79
2021/04/01 03:46:15;;;;;;;88.40;53.30;;;11.00;99.90;;;;;;5021106;28;20206;-81
2021/04/01 03:48:42;;;;;;;85.40;52.67;;;10.90;99.90;;;;;;5020945;28;20222;-78
2021/04/01 03:51:08;;;;;;;92.50;53.50;;;10.80;99.90;;;;;;5020969;28;20507;-79
2021/04/01 03:53:34;;;;;;;88.30;53.00;;;10.80;99.90;;;;;;5021233;28;20237;-78
2021/04/01 03:56:01;;;;;;;90.60;55.83;;;10.80;99.90;;;;;;5020926;28;20209;-78
2021/04/01 04:04:07;;;;;;;87.67;51.93;;;10.60;99.90;;;;;;5004302;28;20870;-79
2021/04/01 04:06:57;;;;;;;89.80;54.10;;;10.50;99.90;;;;;;5006840;28;20206;-80
2021/04/01 04:09:36;;;;;;;90.73;53.03;;;10.50;99.90;;;;;;5037664;28;20688;-78
2021/04/01 04:12:11;;;;;;;91.07;51.50;;;10.50;99.90;;;;;;5025520;28;20247;-78
2021/04/01 04:14:40;;;;;;;90.97;56.13;;;10.40;99.90;;;;;;5024194;28;20359;-79
2021/04/01 04:17:08;;;;;;;94.07;55.03;;;10.30;99.90;;;;;;5025062;28;20199;-77
2021/04/01 04:19:34;;;;;;;91.20;56.23;;;10.30;99.90;;;;;;5024230;28;20245;-79
2021/04/01 04:22:00;;;;;;;89.90;55.07;;;10.20;99.90;;;;;;5023624;28;20218;-79
2021/04/01 04:24:28;;;;;;;95.57;57.50;;;10.20;99.90;;;;;;5024215;28;20345;-79
2021/04/01 04:26:56;;;;;;;102.83;61.10;;;10.10;99.90;;;;;;5023629;28;20248;-77
2021/04/01 04:29:22;;;;;;;101.53;60.87;;;10.00;99.90;;;;;;5023705;28;20210;-77
2021/04/01 04:31:48;;;;;;;91.63;57.70;;;9.90;99.90;;;;;;5023939;28;20894;-78
2021/04/01 04:34:16;;;;;;;99.60;59.70;;;9.90;99.90;;;;;;5023370;28;20199;-78
2021/04/01 04:36:42;;;;;;;97.33;59.97;;;9.80;99.90;;;;;;5023536;28;20276;-79
2021/04/01 04:39:08;;;;;;;100.23;62.80;;;9.80;99.90;;;;;;5023700;28;20242;-77
2021/04/01 04:41:34;;;;;;;103.87;65.27;;;9.80;99.90;;;;;;5023216;28;20234;-79
2021/04/01 04:44:01;;;;;;;109.43;66.67;;;9.80;99.90;;;;;;5024436;28;20203;-79
2021/04/01 04:46:27;;;;;;;113.73;67.37;;;9.80;99.90;;;;;;5022145;28;20213;-79
2021/04/01 04:48:53;;;;;;;103.80;65.80;;;9.80;99.90;;;;;;5024278;28;20198;-78
2021/04/01 04:51:20;;;;;;;114.13;70.17;;;9.70;99.90;;;;;;5023309;28;20235;-78
2021/04/01 04:53:46;;;;;;;116.83;72.30;;;9.70;99.90;;;;;;5020732;28;20624;-78
2021/04/01 04:56:15;;;;;;;118.40;68.87;;;9.70;99.90;;;;;;5004038;28;20550;-78
2021/04/01 04:58:47;;;;;;;120.23;71.00;;;9.70;99.90;;;;;;5003829;28;20345;-77
2021/04/01 05:04:37;;;;;;;113.47;71.23;;;9.70;99.90;;;;;;5016550;28;20198;-78
2021/04/01 05:06:54;;;;;;;119.07;72.57;;;9.60;99.90;;;;;;5025214;28;20248;-79
2021/04/01 05:09:20;;;;;;;120.63;73.70;;;9.60;99.90;;;;;;5042675;28;20194;-77
2021/04/01 05:11:46;;;;;;;119.47;70.13;;;9.60;99.90;;;;;;5035219;28;20293;-78
2021/04/01 05:14:13;;;;;;;129.83;75.97;;;9.50;99.90;;;;;;5023156;28;20206;-77
2021/04/01 05:16:39;;;;;;;126.07;74.20;;;9.50;99.90;;;;;;5022864;28;20213;-77
2021/04/01 05:19:09;;;;;;;114.73;69.73;;;9.40;99.90;;;;;;5022977;28;20263;-77
2021/04/01 05:21:43;;;;;;;117.43;70.60;;;9.40;99.90;;;;;;5022374;28;20203;-77
2021/04/01 05:24:10;;;;;;;122.13;72.70;;;9.40;99.90;;;;;;5023170;28;20470;-77
2021/04/01 05:27:06;;;;;;;127.90;75.57;;;9.40;99.90;;;;;;5023420;28;20212;-78
2021/04/01 05:29:33;;;;;;;125.80;73.33;;;9.40;99.90;;;;;;5021110;28;20198;-78
2021/04/01 05:32:02;;;;;;;124.70;73.57;;;9.40;99.90;;;;;;5023836;28;20210;-78
2021/04/01 05:34:28;;;;;;;125.40;75.37;;;9.30;99.90;;;;;;5023302;28;20217;-77
2021/04/01 05:36:56;;;;;;;130.33;75.50;;;9.30;99.90;;;;;;5023487;28;20782;-78
2021/04/01 05:39:27;;;;;;;131.73;74.43;;;9.30;99.90;;;;;;5023263;28;20226;-78
2021/04/01 05:41:53;;;;;;;130.90;76.73;;;9.30;99.90;;;;;;5023651;28;20198;-78
2021/04/01 05:44:23;;;;;;;127.23;73.70;;;9.40;99.90;;;;;;5022016;28;20297;-77
2021/04/01 05:46:57;;;;;;;133.60;76.20;;;9.40;99.90;;;;;;5023401;28;20226;-78
2021/04/01 05:49:38;;;;;;;135.73;76.20;;;9.40;99.90;;;;;;5022277;28;20731;-77
2021/04/01 05:58:12;;;;;;;127.70;71.33;;;9.50;99.90;;;;;;5022814;28;20202;-79
2021/04/01 06:03:38;;;;;;;129.63;70.43;;;9.40;99.90;;;;;;5018288;28;20241;-77
2021/04/01 06:06:08;;;;;;;131.73;71.83;;;9.40;99.90;;;;;;5022774;28;20202;-77
2021/04/01 06:08:41;;;;;;;123.93;67.33;;;9.40;99.90;;;;;;5040326;28;20620;-77
2021/04/01 06:11:09;;;;;;;132.80;71.23;;;9.50;99.90;;;;;;5041801;28;20870;-78
2021/04/01 06:13:45;;;;;;;134.73;70.03;;;9.50;99.90;;;;;;5042013;28;20308;-77
2021/04/01 06:16:12;;;;;;;126.40;65.60;;;9.50;99.90;;;;;;5003339;28;20735;-77
2021/04/01 06:18:43;;;;;;;112.03;59.23;;;9.50;99.90;;;;;;5002034;28;20199;-77
2021/04/01 06:21:13;;;;;;;116.53;57.50;;;9.50;99.90;;;;;;5020728;28;20207;-78
2021/04/01 06:23:43;;;;;;;119.50;56.17;;;9.50;99.90;;;;;;5022066;28;20218;-76
2021/04/01 06:26:19;;;;;;;105.57;52.83;;;9.50;99.90;;;;;;5021503;28;20289;-77
2021/04/01 06:28:52;;;;;;;103.23;50.77;;;9.50;99.90;;;;;;5022123;28;20213;-77
2021/04/01 06:31:22;;;;;;;113.80;54.07;;;9.50;99.90;;;;;;5021334;28;20210;-76
2021/04/01 06:33:51;;;;;;;99.60;52.60;;;9.50;99.90;;;;;;5021621;28;20991;-77
2021/04/01 06:36:20;;;;;;;86.20;45.97;;;9.40;99.90;;;;;;5019057;28;20241;-77
2021/04/01 06:38:47;;;;;;;66.33;33.53;;;9.50;99.90;;;;;;5021063;28;20203;-77
2021/04/01 06:41:22;;;;;;;49.13;25.63;;;9.40;99.90;;;;;;5020923;28;20218;-77
2021/04/01 06:44:16;;;;;;;46.53;20.70;;;9.40;99.90;;;;;;5020998;28;20225;-78
2021/04/01 06:46:44;;;;;;;40.80;18.70;;;9.40;99.90;;;;;;5021141;28;20517;-78
2021/04/01 06:49:33;;;;;;;35.83;15.87;;;9.40;99.90;;;;;;5019545;28;20217;-78
2021/04/01 06:52:04;;;;;;;36.90;15.07;;;9.50;99.90;;;;;;5021108;28;20380;-77
2021/04/01 06:54:36;;;;;;;35.23;13.70;;;9.50;99.90;;;;;;4985345;28;20544;-77
2021/04/01 06:57:28;;;;;;;26.57;9.53;;;9.60;99.90;;;;;;5021909;28;20217;-78
2021/04/01 07:00:07;;;;;;;21.93;9.50;;;9.60;99.90;;;;;;5019967;28;20672;-77
2021/04/01 07:02:38;;;;;;;26.87;9.67;;;9.60;99.90;;;;;;5020934;28;20260;-77
2021/04/01 07:05:22;;;;;;;21.67;7.17;;;9.60;99.90;;;;;;5008056;28;20243;-78
2021/04/01 07:07:55;;;;;;;17.23;4.77;;;9.70;99.90;;;;;;5023300;28;20194;-77
2021/04/01 07:10:39;;;;;;;21.77;5.60;;;9.70;99.90;;;;;;5041211;28;20590;-76
2021/04/01 07:13:12;;;;;;;14.80;4.80;;;9.80;99.90;;;;;;5027963;28;20214;-77
2021/04/01 07:15:42;;;;;;;17.77;6.07;;;9.80;99.90;;;;;;5020802;28;20240;-78
2021/04/01 07:18:25;;;;;;;18.13;4.37;;;9.80;99.90;;;;;;5020680;28;20531;-79
2021/04/01 07:23:59;;;;;;;20.30;4.73;;;9.80;99.90;;;;;;5015943;28;20268;-77
2021/04/01 07:35:27;;;;;;;12.17;3.47;;;9.90;99.90;;;;;;4926182;28;20255;-78
2021/04/01 07:46:48;;;;;;;14.87;3.87;;;10.20;99.90;;;;;;5021088;28;20498;-79
2021/04/01 07:49:23;;;;;;;7.57;2.33;;;10.20;99.90;;;;;;5020036;28;20198;-79
2021/04/01 07:52:00;;;;;;;12.07;3.33;;;10.30;99.90;;;;;;5020634;28;20605;-78
2021/04/01 07:54:54;;;;;;;8.60;2.40;;;10.40;99.90;;;;;;5020565;28;20213;-77
2021/04/01 07:57:47;;;;;;;14.20;3.30;;;10.40;99.90;;;;;;5020628;28;20206;-77
2021/04/01 08:00:17;;;;;;;13.57;2.70;;;10.50;99.90;;;;;;5001102;28;20254;-76
2021/04/01 08:02:58;;;;;;;15.20;3.57;;;10.50;99.90;;;;;;5000636;28;20207;-78
2021/04/01 08:05:28;;;;;;;11.47;2.67;;;10.60;99.90;;;;;;5001244;28;20243;-78
2021/04/01 08:07:58;;;;;;;15.40;2.97;;;10.70;99.90;;;;;;5013985;28;20211;-78
2021/04/01 08:10:30;;;;;;;18.93;3.37;;;10.70;99.90;;;;;;5001012;28;20650;-78
2021/04/01 08:13:04;;;;;;;11.73;2.83;;;10.70;99.90;;;;;;5001106;28;20203;-77
2021/04/01 08:15:38;;;;;;;11.03;2.87;;;10.70;99.90;;;;;;5012116;28;20375;-77
2021/04/01 08:18:13;;;;;;;9.77;2.67;;;10.80;99.90;;;;;;5020042;28;20202;-79
2021/04/01 08:20:42;;;;;;;10.37;2.43;;;10.90;99.90;;;;;;5019845;28;20304;-78
2021/04/01 08:23:15;;;;;;;13.60;3.60;;;11.00;99.90;;;;;;5020266;28;21061;-78
2021/04/01 08:25:44;;;;;;;18.20;3.50;;;11.20;99.90;;;;;;5019412;28;20213;-78
2021/04/01 08:28:24;;;;;;;17.40;2.67;;;11.40;99.90;;;;;;5020958;28;20233;-78
2021/04/01 08:33:39;;;;;;;13.10;2.87;;;11.70;99.90;;;;;;4983307;28;20234;-79
2021/04/01 08:36:09;;;;;;;14.10;3.03;;;11.70;99.90;;;;;;5000750;28;20674;-78
2021/04/01 08:38:38;;;;;;;16.67;3.10;;;11.80;99.90;;;;;;5013593;28;20218;-77
2021/04/01 08:41:19;;;;;;;12.93;3.70;;;11.80;99.90;;;;;;5020277;28;20238;-78
2021/04/01 08:44:16;;;;;;;16.17;3.33;;;12.00;99.90;;;;;;5020044;28;20803;-78
2021/04/01 08:46:50;;;;;;;17.50;3.83;;;12.10;99.90;;;;;;5021466;28;20190;-79
2021/04/01 08:49:27;;;;;;;12.33;2.57;;;12.10;99.90;;;;;;5023882;28;20237;-79
2021/04/01 08:52:21;;;;;;;10.27;2.20;;;12.20;99.90;;;;;;5024685;28;20194;-78
2021/04/01 08:55:00;;;;;;;12.40;2.63;;;12.50;99.90;;;;;;4997225;28;20630;-77
2021/04/01 08:57:30;;;;;;;9.63;2.83;;;12.70;99.90;;;;;;5023825;28;20205;-78
2021/04/01 09:00:07;;;;;;;14.37;2.73;;;12.80;99.90;;;;;;5023795;28;20222;-78
2021/04/01 09:02:35;;;;;;;14.97;3.17;;;12.70;99.90;;;;;;5016494;28;20212;-79
2021/04/01 09:05:05;;;;;;;13.40;3.47;;;12.80;99.90;;;;;;5023687;28;20239;-78
2021/04/01 09:07:38;;;;;;;10.37;3.20;;;12.90;99.90;;;;;;5023099;28;20194;-80
2021/04/01 09:10:10;;;;;;;11.27;3.07;;;12.70;99.90;;;;;;5024171;28;20507;-78
2021/04/01 09:12:43;;;;;;;13.80;3.17;;;12.80;99.90;;;;;;5023066;28;20277;-79
2021/04/01 09:15:17;;;;;;;14.50;3.37;;;12.80;99.90;;;;;;5023019;28;20678;-79
2021/04/01 09:17:45;;;;;;;11.03;2.63;;;12.70;99.90;;;;;;5023012;28;20210;-76
2021/04/01 09:20:14;;;;;;;11.27;2.57;;;12.80;99.90;;;;;;5023767;28;20226;-78
2021/04/01 09:22:44;;;;;;;14.30;2.73;;;12.70;99.90;;;;;;5023069;28;20202;-76
2021/04/01 09:25:12;;;;;;;14.43;2.80;;;12.70;99.90;;;;;;5023475;28;20207;-79
2021/04/01 09:27:46;;;;;;;14.30;3.47;;;12.80;99.90;;;;;;5022431;28;20393;-77
2021/04/01 09:30:13;;;;;;;17.87;4.10;;;12.70;99.90;;;;;;5023577;28;20211;-78
2021/04/01 09:32:40;;;;;;;14.73;3.97;;;12.70;99.90;;;;;;5023685;28;20294;-78
2021/04/01 09:35:09;;;;;;;10.20;3.27;;;12.70;99.90;;;;;;5022415;28;20280;-77
2021/04/01 09:37:47;;;;;;;14.03;3.30;;;12.80;99.90;;;;;;5022607;28;20198;-77
2021/04/01 09:40:15;;;;;;;19.60;4.80;;;12.90;99.90;;;;;;5003956;28;20262;-78
2021/04/01 09:42:42;;;;;;;14.80;3.90;;;13.00;99.90;;;;;;5021956;28;20218;-78
2021/04/01 09:45:11;;;;;;;14.60;3.33;;;12.90;99.90;;;;;;5018383;28;20218;-78
2021/04/01 09:47:45;;;;;;;18.70;3.47;;;12.90;99.90;;;;;;5019799;28;20692;-79
2021/04/01 09:50:13;;;;;;;19.63;3.83;;;12.90;99.90;;;;;;5021634;28;20616;-77
2021/04/01 09:52:41;;;;;;;17.43;4.00;;;12.90;99.90;;;;;;5022652;28;20490;-78
2021/04/01 09:55:13;;;;;;;12.30;3.23;;;12.90;99.90;;;;;;5022105;28;20218;-76
2021/04/01 09:57:44;;;;;;;13.40;3.83;;;12.80;99.90;;;;;;5021815;28;20214;-78
2021/04/01 10:00:19;;;;;;;19.70;3.33;;;12.90;99.90;;;;;;5022561;28;20223;-77
2021/04/01 10:03:02;;;;;;;15.93;3.53;;;13.10;99.90;;;;;;5021495;28;20263;-78
2021/04/01 10:05:34;;;;;;;11.93;3.40;;;13.10;99.90;;;;;;5021675;28;20244;-79
2021/04/01 10:08:04;;;;;;;15.63;2.90;;;13.10;99.90;;;;;;5027812;28;20348;-77
2021/04/01 10:10:35;;;;;;;16.00;3.50;;;13.10;99.90;;;;;;5018879;28;20214;-79
2021/04/01 10:13:02;;;;;;;13.50;3.43;;;13.20;99.90;;;;;;5018092;28;20605;-79
2021/04/01 10:15:31;;;;;;;16.00;3.03;;;13.30;99.90;;;;;;5019838;28;20742;-79
2021/04/01 10:17:59;;;;;;;17.23;3.40;;;13.30;99.90;;;;;;5021583;28;20210;-79
2021/04/01 10:20:26;;;;;;;15.83;3.17;;;13.20;99.90;;;;;;5022304;28;20337;-78
2021/04/01 10:22:53;;;;;;;13.50;3.77;;;13.20;99.90;;;;;;5022026;28;20280;-79
2021/04/01 10:25:25;;;;;;;14.73;3.00;;;13.20;99.90;;;;;;5022122;28;20198;-80
2021/04/01 10:27:56;;;;;;;17.40;3.43;;;13.20;99.90;;;;;;5022699;28;20234;-78
2021/04/01 10:30:27;;;;;;;14.20;3.30;;;13.20;99.90;;;;;;5022113;28;20298;-78
2021/04/01 10:33:06;;;;;;;17.50;3.37;;;13.10;99.90;;;;;;5022265;28;20217;-78
2021/04/01 10:35:36;;;;;;;13.83;3.13;;;13.00;99.90;;;;;;5022041;28;20206;-78
2021/04/01 10:38:05;;;;;;;12.50;3.10;;;13.00;99.90;;;;;;5021154;28;20604;-79
2021/04/01 10:40:33;;;;;;;17.97;4.07;;;13.00;99.90;;;;;;5020541;28;20232;-79
2021/04/01 10:43:05;;;;;;;15.47;3.73;;;13.00;99.90;;;;;;5022527;28;20272;-79
2021/04/01 10:45:36;;;;;;;14.43;3.40;;;13.20;99.90;;;;;;5021637;28;20226;-79
2021/04/01 10:48:22;;;;;;;14.90;4.40;;;13.10;99.90;;;;;;5021724;28;20202;-81
2021/04/01 10:50:50;;;;;;;19.73;3.40;;;13.00;99.90;;;;;;5021458;28;20380;-78
2021/04/01 10:53:21;;;;;;;14.17;3.27;;;12.70;99.90;;;;;;5021573;28;20230;-79
2021/04/01 10:55:49;;;;;;;18.47;3.80;;;12.80;99.90;;;;;;5022034;28;20202;-80
2021/04/01 10:58:15;;;;;;;12.87;3.03;;;12.80;99.90;;;;;;5022225;28;20892;-79
2021/04/01 11:00:52;;;;;;;15.97;3.53;;;12.70;99.90;;;;;;5020858;28;20640;-79
2021/04/01 11:03:21;;;;;;;15.03;4.43;;;12.70;99.90;;;;;;5021810;28;20368;-80
2021/04/01 11:05:49;;;;;;;11.50;3.10;;;12.90;99.90;;;;;;5021529;28;20202;-80
2021/04/01 11:08:16;;;;;;;15.50;3.43;;;13.10;99.90;;;;;;5036050;28;20198;-78
2021/04/01 11:10:43;;;;;;;18.77;3.47;;;13.10;99.90;;;;;;5031522;28;20198;-79
2021/04/01 11:13:12;;;;;;;16.07;4.20;;;13.00;99.90;;;;;;5021554;28;20261;-76
2021/04/01 11:15:40;;;;;;;17.30;4.20;;;13.10;99.90;;;;;;5022363;28;20230;-78
2021/04/01 11:18:14;;;;;;;14.43;4.60;;;13.00;99.90;;;;;;5011723;28;20599;-78
2021/04/01 11:20:43;;;;;;;16.20;3.97;;;13.10;99.90;;;;;;4984523;28;20230;-79
2021/04/01 11:23:12;;;;;;;15.23;2.77;;;13.00;99.90;;;;;;5009629;28;20211;-78
2021/04/01 11:25:45;;;;;;;12.17;4.20;;;13.10;99.90;;;;;;5021053;28;20786;-78
2021/04/01 11:28:12;;;;;;;14.37;2.33;;;13.10;99.90;;;;;;5021719;28;20564;-77
2021/04/01 11:30:42;;;;;;;13.57;3.07;;;13.30;99.90;;;;;;5021453;28;20248;-77
2021/04/01 11:33:09;;;;;;;14.07;2.63;;;13.30;99.90;;;;;;5021296;28;20657;-77
2021/04/01 11:35:39;;;;;;;9.70;2.97;;;13.30;99.90;;;;;;5021495;28;20284;-78
2021/04/01 11:38:09;;;;;;;12.23;3.20;;;13.30;99.90;;;;;;5021241;28;20217;-78
2021/04/01 11:40:36;;;;;;;15.03;3.70;;;13.40;99.90;;;;;;5021569;28;20249;-78
2021/04/01 11:43:03;;;;;;;11.93;3.13;;;13.40;99.90;;;;;;5009480;28;20265;-79
2021/04/01 11:45:33;;;;;;;14.17;2.97;;;13.30;99.90;;;;;;5001623;28;20545;-80
2021/04/01 11:48:03;;;;;;;13.93;2.63;;;13.10;99.90;;;;;;5001831;28;20520;-78
2021/04/01 11:50:30;;;;;;;11.90;3.17;;;13.00;99.90;;;;;;5015049;28;20211;-78
2021/04/01 11:52:58;;;;;;;19.97;3.13;;;12.90;99.90;;;;;;5021561;28;20263;-80
2021/04/01 11:55:24;;;;;;;11.47;2.97;;;12.80;99.90;;;;;;5020906;28;20202;-81
2021/04/01 11:57:51;;;;;;;11.30;3.13;;;12.90;99.90;;;;;;5020893;28;20206;-79
2021/04/01 12:00:22;;;;;;;16.63;3.30;;;12.90;99.90;;;;;;5021154;28;20677;-79
2021/04/01 12:02:56;;;;;;;14.70;3.30;;;13.00;99.90;;;;;;5020952;28;20219;-79
2021/04/01 12:05:24;;;;;;;10.00;2.37;;;12.90;99.90;;;;;;5021601;28;20241;-79
2021/04/01 12:07:51;;;;;;;12.53;3.23;;;13.00;99.90;;;;;;5023347;28;20214;-78
2021/04/01 12:10:18;;;;;;;11.20;3.10;;;13.00;99.90;;;;;;5021811;28;20198;-79
2021/04/01 12:12:44;;;;;;;13.70;2.97;;;13.00;99.90;;;;;;5022669;28;20219;-79
2021/04/01 12:15:11;;;;;;;11.50;2.80;;;13.00;99.90;;;;;;5009227;28;20269;-79
2021/04/01 12:17:40;;;;;;;12.23;3.00;;;13.20;99.90;;;;;;5001389;28;20214;-79
2021/04/01 12:20:11;;;;;;;11.83;2.60;;;13.30;99.90;;;;;;5002866;28;20518;-78
2021/04/01 12:22:40;;;;;;;12.17;3.27;;;13.30;99.90;;;;;;5020503;28;20658;-78
2021/04/01 12:25:13;;;;;;;16.40;4.00;;;13.10;99.90;;;;;;5025621;28;20532;-79
2021/04/01 12:27:40;;;;;;;9.97;2.30;;;13.10;99.90;;;;;;5025563;28;20241;-79
2021/04/01 12:30:10;;;;;;;13.07;3.10;;;13.00;99.90;;;;;;5026475;28;20206;-77
2021/04/01 12:32:41;;;;;;;16.83;3.20;;;12.90;99.90;;;;;;5024785;28;20285;-78
2021/04/01 12:35:16;;;;;;;10.07;2.80;;;12.80;99.90;;;;;;5025046;28;20660;-80
2021/04/01 12:37:44;;;;;;;14.90;3.37;;;12.80;99.90;;;;;;5025079;28;20198;-78
2021/04/01 12:40:15;;;;;;;13.73;4.07;;;12.80;99.90;;;;;;5025115;28;20978;-80
2021/04/01 12:42:43;;;;;;;11.87;2.90;;;12.70;99.90;;;;;;5022755;28;20579;-80
2021/04/01 12:45:17;;;;;;;14.47;3.17;;;12.50;99.90;;;;;;5025669;28;20300;-77
2021/04/01 12:47:43;;;;;;;12.57;3.10;;;12.40;99.90;;;;;;5025387;28;20209;-80
2021/04/01 12:50:11;;;;;;;13.47;3.43;;;12.50;99.90;;;;;;5025734;28;20253;-79
2021/04/01 12:52:57;;;;;;;13.70;3.40;;;12.60;99.90;;;;;;5024549;28;20271;-81
2021/04/01 12:55:41;;;;;;;20.03;3.13;;;12.80;99.90;;;;;;5024240;28;20210;-77
2021/04/01 12:58:11;;;;;;;14.40;3.17;;;12.80;99.90;;;;;;5025559;28;20214;-78
2021/04/01 13:00:45;;;;;;;18.30;3.60;;;12.90;99.90;;;;;;5025960;28;20413;-79
2021/04/01 13:03:12;;;;;;;12.70;3.10;;;12.90;99.90;;;;;;5025216;28;20965;-79
2021/04/01 13:05:42;;;;;;;14.30;2.93;;;13.00;99.90;;;;;;5025795;28;20265;-79
2021/04/01 13:11:02;;;;;;;10.67;2.80;;;12.90;99.90;;;;;;4977530;28;20340;-78
2021/04/01 13:13:28;;;;;;;14.67;3.47;;;12.90;99.90;;;;;;5023806;28;20954;-77
2021/04/01 13:15:54;;;;;;;12.90;3.87;;;13.00;99.90;;;;;;5022997;28;20221;-78
2021/04/01 13:18:21;;;;;;;13.60;3.20;;;13.10;99.90;;;;;;5006384;28;20210;-78
2021/04/01 13:20:47;;;;;;;13.27;3.33;;;13.20;99.90;;;;;;5023349;28;20226;-77
2021/04/01 13:23:31;;;;;;;16.73;3.47;;;12.90;99.90;;;;;;5024186;28;20599;-76
2021/04/01 13:25:58;;;;;;;13.10;3.13;;;12.90;99.90;;;;;;5023410;28;20268;-78
2021/04/01 13:28:25;;;;;;;15.40;3.80;;;12.80;99.90;;;;;;5023172;28;20218;-77
2021/04/01 13:30:57;;;;;;;10.90;3.20;;;12.70;99.90;;;;;;5024133;28;20958;-78